createdAt,value
2023-05-17T00:00:39.262Z,96937.84
2023-05-17T00:03:07.434Z,96939.06
2023-05-17T00:05:35.553Z,96937.25
2023-05-17T00:08:05.588Z,96943.31
2023-05-17T00:10:33.709Z,96938.44
2023-05-17T00:13:01.774Z,96947.56
2023-05-17T00:15:29.927Z,96939.28
2023-05-17T00:17:58.414Z,96945.13
2023-05-17T00:20:26.555Z,96941.06
2023-05-17T00:22:54.655Z,96945.13
2023-05-17T00:25:24.326Z,96948.38
2023-05-17T00:27:52.466Z,96945.56
2023-05-17T00:30:20.625Z,96948.38
2023-05-17T00:32:48.770Z,96956.88
2023-05-17T00:35:17.338Z,96957.06
2023-05-17T00:37:47.939Z,96956.88
2023-05-17T00:40:16.862Z,96959.69
2023-05-17T00:42:46.879Z,96960.06
2023-05-17T00:45:14.955Z,96966.75
2023-05-17T00:47:43.671Z,96963.53
2023-05-17T00:50:12.929Z,96965.34
2023-05-17T00:52:41.282Z,96969.81
2023-05-17T00:55:10.180Z,96967.75
2023-05-17T00:57:39.263Z,96971.78
2023-05-17T01:00:10.592Z,96970.19
2023-05-17T01:02:39.880Z,96971.97
2023-05-17T01:05:10.134Z,96974.00
2023-05-17T01:07:38.226Z,96971.34
2023-05-17T01:10:08.668Z,96973.56
2023-05-17T01:12:51.464Z,96978.22
2023-05-17T01:15:27.019Z,96977.38
2023-05-17T01:18:06.842Z,96978.41
2023-05-17T01:20:39.136Z,96981.81
2023-05-17T01:23:32.455Z,96993.16
2023-05-17T01:26:09.607Z,96985.44
2023-05-17T01:28:41.516Z,96989.09
2023-05-17T01:31:11.933Z,96993.13
2023-05-17T01:33:40.737Z,96981.41
2023-05-17T01:36:10.181Z,96987.91
2023-05-17T01:38:38.329Z,96990.72
2023-05-17T01:41:17.131Z,96987.06
2023-05-17T01:43:52.508Z,96992.97
2023-05-17T01:46:29.229Z,96987.91
2023-05-17T01:49:07.404Z,96992.13
2023-05-17T01:51:45.713Z,97008.25
2023-05-17T01:54:16.218Z,97005.38
2023-05-17T01:56:49.740Z,97012.38
2023-05-17T01:59:25.213Z,97005.47
2023-05-17T02:01:58.268Z,97017.00
2023-05-17T02:04:26.449Z,97013.50
2023-05-17T02:06:54.520Z,97006.84
2023-05-17T02:09:22.616Z,97015.88
2023-05-17T02:11:50.727Z,97012.69
2023-05-17T02:14:20.185Z,97016.69
2023-05-17T02:16:48.877Z,97010.44
2023-05-17T02:19:17.252Z,97016.25
2023-05-17T02:21:45.448Z,97025.72
2023-05-17T02:24:13.582Z,97024.31
2023-05-17T02:26:43.228Z,97014.81
2023-05-17T02:29:13.342Z,97024.50
2023-05-17T02:31:42.816Z,97021.88
2023-05-17T02:34:11.822Z,97026.34
2023-05-17T02:36:41.005Z,97027.56
2023-05-17T02:39:09.168Z,97027.09
2023-05-17T02:41:37.354Z,97022.84
2023-05-17T02:44:05.524Z,97020.38
2023-05-17T02:46:34.059Z,97023.00
2023-05-17T02:49:04.494Z,97028.25
2023-05-17T02:51:32.624Z,97027.38
2023-05-17T02:54:01.506Z,97022.75
2023-05-17T02:56:29.634Z,97026.00
2023-05-17T02:58:58.007Z,97019.31
2023-05-17T03:01:26.279Z,97018.53
2023-05-17T03:03:55.271Z,97018.63
2023-05-17T03:06:24.913Z,97021.03
2023-05-17T03:08:53.928Z,97030.09
2023-05-17T03:11:22.030Z,97031.66
2023-05-17T03:13:51.642Z,97034.03
2023-05-17T03:16:23.946Z,97031.59
2023-05-17T03:18:53.423Z,97036.16
2023-05-17T03:21:21.743Z,97039.25
2023-05-17T03:23:52.717Z,97036.16
2023-05-17T03:26:20.834Z,97036.75
2023-05-17T03:31:52.180Z,97042.31
2023-05-17T03:34:20.612Z,97046.63
2023-05-17T03:36:49.216Z,97043.75
2023-05-17T03:39:20.777Z,97043.13
2023-05-17T03:41:48.905Z,97054.63
2023-05-17T03:44:17.645Z,97053.38
2023-05-17T03:46:46.188Z,97060.34
2023-05-17T03:49:15.132Z,97053.03
2023-05-17T03:51:43.440Z,97056.94
2023-05-17T03:54:11.556Z,97060.66
2023-05-17T03:56:43.572Z,97056.50
2023-05-17T03:59:11.651Z,97067.53
2023-05-17T04:01:39.734Z,97072.78
2023-05-17T04:04:07.894Z,97072.06
2023-05-17T04:06:36.214Z,97073.50
2023-05-17T04:09:05.176Z,97071.78
2023-05-17T04:11:33.290Z,97070.31
2023-05-17T04:14:02.724Z,97070.94
2023-05-17T04:16:32.178Z,97078.81
2023-05-17T04:19:01.804Z,97089.19
2023-05-17T04:21:31.272Z,97085.56
2023-05-17T04:23:59.481Z,97092.28
2023-05-17T04:26:28.344Z,97097.00
2023-05-17T04:28:56.549Z,97100.53
2023-05-17T04:31:26.057Z,97091.66
2023-05-17T04:33:54.263Z,97106.03
2023-05-17T04:36:22.774Z,97108.91
2023-05-17T04:38:51.961Z,97111.53
2023-05-17T04:41:25.844Z,97101.69
2023-05-17T04:43:54.076Z,97108.56
2023-05-17T04:46:30.694Z,97112.63
2023-05-17T04:48:58.969Z,97113.53
2023-05-17T04:51:27.968Z,97110.16
2023-05-17T04:53:56.321Z,97112.59
2023-05-17T04:56:24.446Z,97120.75
2023-05-17T04:58:53.381Z,97122.56
2023-05-17T05:01:22.172Z,97118.91
2023-05-17T05:03:52.755Z,97117.75
2023-05-17T05:06:22.339Z,97122.66
2023-05-17T05:08:51.078Z,97120.84
2023-05-17T05:11:19.266Z,97125.72
2023-05-17T05:13:47.789Z,97125.16
2023-05-17T05:16:15.890Z,97133.88
2023-05-17T05:18:45.163Z,97135.66
2023-05-17T05:21:15.743Z,97141.81
2023-05-17T05:23:44.110Z,97149.94
2023-05-17T05:26:13.431Z,97144.31
2023-05-17T05:28:41.585Z,97151.19
2023-05-17T05:31:10.358Z,97155.81
2023-05-17T05:33:44.709Z,97168.00
2023-05-17T05:36:13.237Z,97159.66
2023-05-17T05:38:43.491Z,97161.69
2023-05-17T05:41:11.661Z,97162.22
2023-05-17T05:43:39.792Z,97160.47
2023-05-17T05:46:08.877Z,97164.47
2023-05-17T05:48:39.573Z,97171.28
2023-05-17T05:51:08.836Z,97173.13
2023-05-17T05:53:39.735Z,97181.25
2023-05-17T05:56:09.962Z,97179.22
2023-05-17T05:58:38.350Z,97176.34
2023-05-17T06:01:07.413Z,97170.53
2023-05-17T06:03:35.505Z,97182.09
2023-05-17T06:06:03.643Z,97180.06
2023-05-17T06:08:31.922Z,97182.66
2023-05-17T06:11:00.038Z,97192.81
2023-05-17T06:13:29.736Z,97190.81
2023-05-17T06:15:59.696Z,97195.25
2023-05-17T06:18:27.869Z,97191.56
2023-05-17T06:20:56.221Z,97198.38
2023-05-17T06:23:24.597Z,97188.09
2023-05-17T06:25:53.351Z,97200.88
2023-05-17T06:28:21.498Z,97193.34
2023-05-17T06:30:50.924Z,97201.44
2023-05-17T06:33:19.167Z,97205.38
2023-05-17T06:35:55.507Z,97214.06
2023-05-17T06:38:24.681Z,97210.31
2023-05-17T06:40:54.259Z,97206.50
2023-05-17T06:43:22.804Z,97214.56
2023-05-17T06:45:52.277Z,97213.50
2023-05-17T06:48:20.464Z,97208.56
2023-05-17T06:50:48.695Z,97210.94
2023-05-17T06:53:16.848Z,97213.00
2023-05-17T06:55:45.233Z,97205.34
2023-05-17T06:58:13.492Z,97207.09
2023-05-17T07:00:41.626Z,97206.53
2023-05-17T07:03:11.172Z,97213.31
2023-05-17T07:05:39.411Z,97212.38
2023-05-17T07:08:33.267Z,97208.22
2023-05-17T07:11:02.950Z,97216.19
2023-05-17T07:13:32.791Z,97225.66
2023-05-17T07:16:01.386Z,97220.97
2023-05-17T07:18:31.104Z,97221.63
2023-05-17T07:20:59.265Z,97218.03
2023-05-17T07:23:27.382Z,97218.13
2023-05-17T07:25:55.478Z,97217.72
2023-05-17T07:28:23.564Z,97233.47
2023-05-17T07:30:52.144Z,97227.44
2023-05-17T07:33:20.229Z,97221.41
2023-05-17T07:35:49.669Z,97225.63
2023-05-17T07:38:17.821Z,97226.38
2023-05-17T07:40:48.904Z,97226.06
2023-05-17T07:43:16.997Z,97231.00
2023-05-17T07:45:45.221Z,97230.75
2023-05-17T07:48:13.376Z,97230.09
2023-05-17T07:50:44.165Z,97228.72
2023-05-17T07:53:13.727Z,97233.13
2023-05-17T07:55:51.591Z,97233.88
2023-05-17T07:58:20.365Z,97231.28
2023-05-17T08:00:49.364Z,97236.59
2023-05-17T08:03:17.762Z,97229.16
2023-05-17T08:05:46.016Z,97233.69
2023-05-17T08:08:15.726Z,97232.91
2023-05-17T08:10:43.855Z,97232.16
2023-05-17T08:13:14.896Z,97238.47
2023-05-17T08:15:43.132Z,97232.31
2023-05-17T08:18:11.634Z,97240.34
2023-05-17T08:20:39.793Z,97239.81
2023-05-17T08:23:08.366Z,97231.88
2023-05-17T08:25:37.809Z,97233.31
2023-05-17T08:28:06.110Z,97227.34
2023-05-17T08:30:34.381Z,97230.69
2023-05-17T08:33:03.062Z,97231.13
2023-05-17T08:35:31.763Z,97233.28
2023-05-17T08:37:59.969Z,97244.56
2023-05-17T08:40:29.561Z,97238.66
2023-05-17T08:42:59.757Z,97242.13
2023-05-17T08:45:29.330Z,97239.03
2023-05-17T08:47:58.105Z,97228.16
2023-05-17T08:50:30.359Z,97234.69
2023-05-17T08:52:59.980Z,97231.38
2023-05-17T08:55:30.131Z,97228.56
2023-05-17T08:58:00.236Z,97222.53
2023-05-17T09:00:28.977Z,97225.53
2023-05-17T09:02:57.985Z,97227.41
2023-05-17T09:05:26.529Z,97224.44
2023-05-17T09:07:55.141Z,97224.84
2023-05-17T09:10:23.470Z,97226.28
2023-05-17T09:12:52.280Z,97224.84
2023-05-17T09:15:26.951Z,97234.59
2023-05-17T09:17:55.714Z,97235.81
2023-05-17T09:20:25.647Z,97231.56
2023-05-17T09:22:53.820Z,97239.25
2023-05-17T09:25:22.509Z,97229.94
2023-05-17T09:27:53.855Z,97233.56
2023-05-17T09:30:29.347Z,97229.94
2023-05-17T09:32:58.611Z,97230.31
2023-05-17T09:35:30.156Z,97229.94
2023-05-17T09:38:08.619Z,97231.56
2023-05-17T09:40:41.969Z,97229.09
2023-05-17T09:43:11.080Z,97242.88
2023-05-17T09:45:41.207Z,97239.44
2023-05-17T09:48:22.310Z,97236.00
2023-05-17T09:50:53.323Z,97229.09
2023-05-17T09:53:28.089Z,97229.91
2023-05-17T09:55:58.507Z,97237.22
2023-05-17T09:58:28.844Z,97224.22
2023-05-17T10:01:02.200Z,97231.16
2023-05-17T10:03:34.375Z,97227.06
2023-05-17T10:06:05.281Z,97219.53
2023-05-17T10:08:34.856Z,97228.06
2023-05-17T10:11:09.020Z,97222.16
2023-05-17T10:13:44.763Z,97224.19
2023-05-17T10:16:14.882Z,97224.75
2023-05-17T10:18:43.939Z,97229.00
2023-05-17T10:21:12.757Z,97241.06
2023-05-17T10:23:44.381Z,97239.38
2023-05-17T10:26:15.923Z,97243.91
2023-05-17T10:28:46.198Z,97237.25
2023-05-17T10:31:16.895Z,97233.16
2023-05-17T10:33:48.646Z,97236.75
2023-05-17T10:36:19.894Z,97228.03
2023-05-17T10:38:48.547Z,97236.78
2023-05-17T10:41:19.330Z,97235.97
2023-05-17T10:43:48.476Z,97227.06
2023-05-17T10:46:21.375Z,97230.25
2023-05-17T10:48:51.390Z,97241.63
2023-05-17T10:51:25.076Z,97234.28
2023-05-17T10:54:09.407Z,97243.09
2023-05-17T10:56:42.594Z,97240.03
2023-05-17T10:59:21.886Z,97240.25
2023-05-17T11:01:59.767Z,97246.94
2023-05-17T11:04:35.051Z,97244.53
2023-05-17T11:07:27.303Z,97247.97
2023-05-17T11:10:05.861Z,97249.63
2023-05-17T11:12:39.251Z,97247.16
2023-05-17T11:15:10.872Z,97255.50
2023-05-17T11:17:53.891Z,97251.84
2023-05-17T11:20:38.774Z,97249.81
2023-05-17T11:23:17.069Z,97254.06
2023-05-17T11:25:46.735Z,97258.72
2023-05-17T11:28:22.112Z,97243.53
2023-05-17T11:31:05.953Z,97246.59
2023-05-17T11:33:44.457Z,97242.50
2023-05-17T11:36:20.507Z,97234.97
2023-05-17T11:39:09.944Z,97242.50
2023-05-17T11:41:41.381Z,97236.22
2023-05-17T11:44:10.077Z,97237.81
2023-05-17T11:46:39.448Z,97235.34
2023-05-17T11:49:10.206Z,97242.84
2023-05-17T11:51:39.738Z,97236.34
2023-05-17T11:54:08.390Z,97235.59
2023-05-17T11:56:43.689Z,97233.34
2023-05-17T11:59:12.671Z,97239.03
2023-05-17T12:01:45.922Z,97235.00
2023-05-17T12:04:16.155Z,97240.88
2023-05-17T12:06:45.886Z,97235.38
2023-05-17T12:09:17.807Z,97239.25
2023-05-17T12:11:46.295Z,97235.16
2023-05-17T12:14:18.242Z,97239.44
2023-05-17T12:16:50.634Z,97239.25
2023-05-17T12:19:22.519Z,97236.00
2023-05-17T12:21:51.464Z,97228.63
2023-05-17T12:24:19.940Z,97228.63
2023-05-17T12:26:49.186Z,97233.94
2023-05-17T12:29:22.888Z,97231.69
2023-05-17T12:31:53.762Z,97239.56
2023-05-17T12:34:23.663Z,97229.44
2023-05-17T12:36:53.244Z,97230.44
2023-05-17T12:39:23.921Z,97229.22
2023-05-17T12:41:53.051Z,97227.81
2023-05-17T12:44:21.765Z,97229.84
2023-05-17T12:46:53.828Z,97218.25
2023-05-17T12:49:23.603Z,97221.09
2023-05-17T12:51:51.819Z,97220.25
2023-05-17T12:54:30.569Z,97221.72
2023-05-17T12:56:58.863Z,97223.75
2023-05-17T12:59:29.088Z,97226.19
2023-05-17T13:02:00.644Z,97222.53
2023-05-17T13:04:36.861Z,97208.72
2023-05-17T13:07:06.863Z,97216.47
2023-05-17T13:09:36.434Z,97215.44
2023-05-17T13:12:08.771Z,97220.66
2023-05-17T13:14:40.288Z,97212.69
2023-05-17T13:17:12.056Z,97215.47
2023-05-17T13:19:42.243Z,97220.16
2023-05-17T13:22:11.169Z,97222.25
2023-05-17T13:24:40.686Z,97216.69
2023-05-17T13:27:09.512Z,97208.94
2023-05-17T13:29:41.615Z,97207.84
2023-05-17T13:32:13.670Z,97203.84
2023-05-17T13:34:43.211Z,97211.44
2023-05-17T13:37:12.740Z,97210.06
2023-05-17T13:39:41.680Z,97204.06
2023-05-17T13:42:10.530Z,97208.53
2023-05-17T13:44:39.084Z,97215.13
2023-05-17T13:47:07.509Z,97220.84
2023-05-17T13:49:36.178Z,97214.84
2023-05-17T13:52:08.959Z,97212.03
2023-05-17T13:54:37.885Z,97217.47
2023-05-17T13:57:07.227Z,97212.22
2023-05-17T13:59:35.347Z,97216.66
2023-05-17T14:02:04.506Z,97210.72
2023-05-17T14:04:33.088Z,97220.72
2023-05-17T14:07:01.761Z,97220.88
2023-05-17T14:09:33.773Z,97213.53
2023-05-17T14:12:02.537Z,97222.91
2023-05-17T14:14:31.968Z,97227.59
2023-05-17T14:17:01.373Z,97222.09
2023-05-17T14:19:29.651Z,97214.91
2023-05-17T14:21:57.833Z,97212.38
2023-05-17T14:24:25.919Z,97207.91
2023-05-17T14:26:55.370Z,97210.63
2023-05-17T14:29:23.488Z,97215.91
2023-05-17T14:31:51.851Z,97218.38
2023-05-17T14:34:20.208Z,97213.44
2023-05-17T14:36:48.458Z,97213.06
2023-05-17T14:39:17.486Z,97213.28
2023-05-17T14:41:45.622Z,97220.78
2023-05-17T14:44:15.134Z,97213.16
2023-05-17T14:46:43.331Z,97213.16
2023-05-17T14:49:11.527Z,97224.34
2023-05-17T14:51:39.800Z,97217.63
2023-05-17T14:54:07.902Z,97215.63
2023-05-17T14:56:36.033Z,97211.34
2023-05-17T14:59:04.142Z,97212.22
2023-05-17T15:01:33.597Z,97209.91
2023-05-17T15:04:01.853Z,97213.34
2023-05-17T15:06:30.198Z,97211.59
2023-05-17T15:08:58.405Z,97214.38
2023-05-17T15:11:26.551Z,97219.25
2023-05-17T15:13:54.933Z,97219.41
2023-05-17T15:16:23.433Z,97218.59
2023-05-17T15:18:54.813Z,97220.66
2023-05-17T15:21:24.654Z,97220.25
2023-05-17T15:23:52.966Z,97220.91
2023-05-17T15:26:25.494Z,97230.03
2023-05-17T15:28:53.588Z,97224.13
2023-05-17T15:31:23.821Z,97222.69
2023-05-17T15:33:53.366Z,97224.34
2023-05-17T15:36:21.602Z,97222.03
2023-05-17T15:38:49.735Z,97213.88
2023-05-17T15:41:22.273Z,97218.81
2023-05-17T15:43:50.459Z,97212.78
2023-05-17T15:46:19.508Z,97217.25
2023-05-17T15:48:47.832Z,97227.34
2023-05-17T15:51:17.607Z,97212.72
2023-05-17T15:53:45.809Z,97216.75
2023-05-17T15:56:15.775Z,97217.84
2023-05-17T15:58:45.016Z,97213.78
2023-05-17T16:01:13.097Z,97213.53
2023-05-17T16:03:41.254Z,97211.69
2023-05-17T16:06:09.541Z,97209.66
2023-05-17T16:08:39.546Z,97206.63
2023-05-17T16:11:08.406Z,97205.72
2023-05-17T16:13:36.549Z,97204.56
2023-05-17T16:16:04.851Z,97200.88
2023-05-17T16:18:33.072Z,97211.09
2023-05-17T16:21:04.094Z,97201.88
2023-05-17T16:23:32.580Z,97204.94
2023-05-17T16:26:02.793Z,97205.41
2023-05-17T16:28:32.303Z,97202.13
2023-05-17T16:31:00.842Z,97202.38
2023-05-17T16:33:29.058Z,97203.19
2023-05-17T16:35:58.334Z,97202.94
2023-05-17T16:38:26.520Z,97205.28
2023-05-17T16:41:22.937Z,97207.34
2023-05-17T16:43:51.655Z,97207.53
2023-05-17T16:46:24.474Z,97205.69
2023-05-17T16:48:56.622Z,97209.00
2023-05-17T16:51:25.050Z,97205.28
2023-05-17T16:53:53.234Z,97203.47
2023-05-17T16:56:23.046Z,97200.06
2023-05-17T16:58:52.254Z,97204.94
2023-05-17T17:01:20.440Z,97190.84
2023-05-17T17:03:48.850Z,97197.25
2023-05-17T17:06:17.071Z,97198.75
2023-05-17T17:08:46.487Z,97201.22
2023-05-17T17:11:14.638Z,97193.63
2023-05-17T17:13:44.161Z,97186.94
2023-05-17T17:16:12.304Z,97182.13
2023-05-17T17:18:40.511Z,97190.81
2023-05-17T17:21:08.585Z,97192.91
2023-05-17T17:23:36.689Z,97190.66
2023-05-17T17:26:30.652Z,97190.28
2023-05-17T17:29:00.127Z,97189.63
2023-05-17T17:31:28.373Z,97201.06
2023-05-17T17:33:56.593Z,97202.06
2023-05-17T17:36:25.989Z,97199.25
2023-05-17T17:38:54.888Z,97205.28
2023-05-17T17:41:23.136Z,97191.50
2023-05-17T17:43:51.255Z,97197.63
2023-05-17T17:46:20.927Z,97203.50
2023-05-17T17:48:49.107Z,97195.19
2023-05-17T17:51:17.244Z,97203.16
2023-05-17T17:53:45.332Z,97195.81
2023-05-17T17:56:13.400Z,97206.34
2023-05-17T17:58:41.552Z,97202.75
2023-05-17T18:01:09.766Z,97200.38
2023-05-17T18:03:39.235Z,97201.97
2023-05-17T18:06:07.693Z,97206.03
2023-05-17T18:08:35.818Z,97207.69
2023-05-17T18:11:03.921Z,97206.59
2023-05-17T18:13:32.060Z,97199.28
2023-05-17T18:16:00.258Z,97205.53
2023-05-17T18:18:28.359Z,97207.13
2023-05-17T18:20:57.998Z,97207.75
2023-05-17T18:23:26.405Z,97206.94
2023-05-17T18:25:54.499Z,97207.53
2023-05-17T18:28:33.847Z,97207.09
2023-05-17T18:31:09.940Z,97208.94
2023-05-17T18:33:38.016Z,97217.28
2023-05-17T18:36:08.212Z,97207.59
2023-05-17T18:38:36.358Z,97209.31
2023-05-17T18:41:06.257Z,97215.88
2023-05-17T18:43:38.371Z,97218.09
2023-05-17T18:46:06.479Z,97210.50
2023-05-17T18:48:36.487Z,97213.53
2023-05-17T18:51:06.835Z,97209.50
2023-05-17T18:53:36.757Z,97222.31
2023-05-17T18:56:05.323Z,97211.75
2023-05-17T18:58:33.449Z,97213.41
2023-05-17T19:01:02.597Z,97221.00
2023-05-17T19:03:30.911Z,97225.28
2023-05-17T19:05:59.167Z,97219.81
2023-05-17T19:08:27.298Z,97225.56
2023-05-17T19:10:56.751Z,97225.34
2023-05-17T19:13:27.112Z,97229.00
2023-05-17T19:15:55.245Z,97233.09
2023-05-17T19:18:23.419Z,97228.03
2023-05-17T19:20:51.562Z,97228.25
2023-05-17T19:23:21.302Z,97228.25
2023-05-17T19:25:49.954Z,97229.88
2023-05-17T19:28:19.389Z,97237.84
2023-05-17T19:30:47.527Z,97240.06
2023-05-17T19:33:16.426Z,97240.91
2023-05-17T19:35:44.572Z,97249.22
2023-05-17T19:38:12.698Z,97244.53
2023-05-17T19:40:41.281Z,97242.53
2023-05-17T19:43:09.357Z,97253.69
2023-05-17T19:45:39.582Z,97245.75
2023-05-17T19:48:09.923Z,97254.47
2023-05-17T19:50:38.975Z,97246.34
2023-05-17T19:53:07.123Z,97243.53
2023-05-17T19:55:36.436Z,97245.97
2023-05-17T19:58:04.761Z,97248.16
2023-05-17T20:00:33.096Z,97249.97
2023-05-17T20:03:02.676Z,97248.16
2023-05-17T20:05:31.257Z,97249.38
2023-05-17T20:08:03.005Z,97243.03
2023-05-17T20:10:32.175Z,97245.84
2023-05-17T20:13:00.566Z,97240.97
2023-05-17T20:15:28.982Z,97247.44
2023-05-17T20:17:59.023Z,97248.22
2023-05-17T20:20:28.654Z,97251.88
2023-05-17T20:22:57.035Z,97261.78
2023-05-17T20:25:25.534Z,97254.47
2023-05-17T20:28:17.717Z,97248.75
2023-05-17T20:30:51.812Z,97251.75
2023-05-17T20:33:26.197Z,97253.16
2023-05-17T20:35:56.078Z,97258.41
2023-05-17T20:38:24.172Z,97262.03
2023-05-17T20:40:53.000Z,97256.72
2023-05-17T20:43:21.140Z,97260.16
2023-05-17T20:45:49.920Z,97251.81
2023-05-17T20:48:18.432Z,97253.59
2023-05-17T20:50:47.275Z,97254.16
2023-05-17T20:53:16.684Z,97258.19
2023-05-17T20:55:45.230Z,97256.16
2023-05-17T20:58:13.269Z,97259.56
2023-05-17T21:00:41.411Z,97255.13
2023-05-17T21:03:10.997Z,97260.53
2023-05-17T21:05:39.292Z,97257.66
2023-05-17T21:08:08.204Z,97262.69
2023-05-17T21:10:40.542Z,97257.59
2023-05-17T21:13:11.905Z,97252.53
2023-05-17T21:15:40.039Z,97255.31
2023-05-17T21:18:10.717Z,97251.03
2023-05-17T21:20:39.762Z,97255.03
2023-05-17T21:23:07.869Z,97253.44
2023-05-17T21:25:38.453Z,97250.59
2023-05-17T21:28:06.850Z,97250.16
2023-05-17T21:30:37.045Z,97242.81
2023-05-17T21:33:05.716Z,97250.06
2023-05-17T21:35:33.988Z,97237.91
2023-05-17T21:38:02.073Z,97239.44
2023-05-17T21:40:32.654Z,97235.09
2023-05-17T21:43:06.153Z,97231.88
2023-05-17T21:45:39.813Z,97239.63
2023-05-17T21:48:11.619Z,97237.75
2023-05-17T21:50:39.785Z,97234.09
2023-05-17T21:53:12.405Z,97235.13
2023-05-17T21:55:56.305Z,97230.22
2023-05-17T21:58:31.128Z,97234.69
2023-05-17T22:00:59.332Z,97235.44
2023-05-17T22:03:27.557Z,97231.19
2023-05-17T22:05:55.691Z,97234.00
2023-05-17T22:08:23.837Z,97235.78
2023-05-17T22:10:54.297Z,97238.81
2023-05-17T22:13:26.240Z,97235.97
2023-05-17T22:15:57.088Z,97228.09
2023-05-17T22:18:52.393Z,97232.09
2023-05-17T22:21:21.345Z,97232.31
2023-05-17T22:23:49.372Z,97230.47
2023-05-17T22:26:19.758Z,97233.09
2023-05-17T22:28:47.931Z,97233.03
2023-05-17T22:31:18.431Z,97218.03
2023-05-17T22:33:46.957Z,97234.78
2023-05-17T22:36:17.133Z,97220.00
2023-05-17T22:38:45.317Z,97236.13
2023-05-17T22:41:14.425Z,97229.09
2023-05-17T22:43:42.556Z,97228.84
2023-05-17T22:46:17.072Z,97228.38
2023-05-17T22:48:46.519Z,97228.56
2023-05-17T22:51:14.620Z,97230.38
2023-05-17T22:53:42.669Z,97231.75
2023-05-17T22:56:11.080Z,97233.56
2023-05-17T22:58:39.206Z,97225.59
2023-05-17T23:01:07.409Z,97229.22
2023-05-17T23:03:35.554Z,97227.41
2023-05-17T23:06:05.437Z,97231.03
2023-05-17T23:08:33.716Z,97232.84
2023-05-17T23:11:01.867Z,97223.34
2023-05-17T23:13:29.991Z,97228.69
2023-05-17T23:15:58.075Z,97232.69
2023-05-17T23:18:27.476Z,97229.06
2023-05-17T23:20:55.700Z,97225.44
2023-05-17T23:23:25.185Z,97224.38
2023-05-17T23:25:56.304Z,97217.97
2023-05-17T23:28:25.091Z,97216.59
2023-05-17T23:30:54.479Z,97214.13
2023-05-17T23:33:22.588Z,97221.19
2023-05-17T23:35:51.115Z,97220.84
2023-05-17T23:38:19.236Z,97223.91
2023-05-17T23:40:48.612Z,97225.25
2023-05-17T23:43:16.631Z,97219.75
2023-05-17T23:45:44.777Z,97224.34
2023-05-17T23:48:16.040Z,97220.94
2023-05-17T23:50:44.221Z,97221.09
2023-05-17T23:53:12.312Z,97221.47
2023-05-17T23:55:40.393Z,97219.38
2023-05-17T23:58:09.823Z,97212.94
